sensor_id;sensor_type;location;lat;lon;timestamp;P1;durP1;ratioP1;P2;durP2;ratioP2
1987;SDS011;12775;46.994;15.498;2022-07-18T00:01:02;4.16;;;3.86;;
1987;SDS011;12775;46.994;15.498;2022-07-18T00:03:28;3.80;;;3.50;;
1987;SDS011;12775;46.994;15.498;2022-07-18T00:05:55;3.84;;;3.46;;
1987;SDS011;12775;46.994;15.498;2022-07-18T00:08:21;3.76;;;3.46;;
1987;SDS011;12775;46.994;15.498;2022-07-18T00:10:48;4.00;;;3.60;;
1987;SDS011;12775;46.994;15.498;2022-07-18T00:13:14;4.48;;;3.82;;
1987;SDS011;12775;46.994;15.498;2022-07-18T00:15:41;3.70;;;3.42;;
1987;SDS011;12775;46.994;15.498;2022-07-18T00:18:08;4.02;;;3.10;;
1987;SDS011;12775;46.994;15.498;2022-07-18T00:20:34;3.84;;;3.54;;
1987;SDS011;12775;46.994;15.498;2022-07-18T00:23:01;4.02;;;3.72;;
1987;SDS011;12775;46.994;15.498;2022-07-18T00:25:27;3.90;;;3.60;;
1987;SDS011;12775;46.994;15.498;2022-07-18T00:27:55;3.66;;;3.36;;
1987;SDS011;12775;46.994;15.498;2022-07-18T00:30:22;4.30;;;3.90;;
1987;SDS011;12775;46.994;15.498;2022-07-18T00:32:48;5.36;;;3.02;;
1987;SDS011;12775;46.994;15.498;2022-07-18T00:35:15;4.54;;;3.46;;
1987;SDS011;12775;46.994;15.498;2022-07-18T00:37:41;3.16;;;2.88;;
1987;SDS011;12775;46.994;15.498;2022-07-18T00:40:08;4.82;;;3.98;;
1987;SDS011;12775;46.994;15.498;2022-07-18T00:42:35;4.88;;;3.84;;
1987;SDS011;12775;46.994;15.498;2022-07-18T00:45:02;3.88;;;3.58;;
1987;SDS011;12775;46.994;15.498;2022-07-18T00:47:29;3.88;;;3.62;;
1987;SDS011;12775;46.994;15.498;2022-07-18T00:49:55;3.52;;;3.22;;
1987;SDS011;12775;46.994;15.498;2022-07-18T00:52:22;4.80;;;3.82;;
1987;SDS011;12775;46.994;15.498;2022-07-18T00:54:48;4.38;;;3.64;;
1987;SDS011;12775;46.994;15.498;2022-07-18T00:57:15;3.74;;;3.42;;
1987;SDS011;12775;46.994;15.498;2022-07-18T00:59:42;3.98;;;3.56;;
1987;SDS011;12775;46.994;15.498;2022-07-18T01:02:14;3.46;;;3.16;;
1987;SDS011;12775;46.994;15.498;2022-07-18T01:04:40;3.88;;;3.48;;
1987;SDS011;12775;46.994;15.498;2022-07-18T01:07:07;5.02;;;4.62;;
1987;SDS011;12775;46.994;15.498;2022-07-18T01:09:34;4.28;;;3.90;;
1987;SDS011;12775;46.994;15.498;2022-07-18T01:12:00;4.40;;;4.10;;
1987;SDS011;12775;46.994;15.498;2022-07-18T01:14:27;4.62;;;3.82;;
1987;SDS011;12775;46.994;15.498;2022-07-18T01:16:53;4.92;;;4.26;;
1987;SDS011;12775;46.994;15.498;2022-07-18T01:19:20;4.84;;;4.02;;
1987;SDS011;12775;46.994;15.498;2022-07-18T01:21:47;4.50;;;4.20;;
1987;SDS011;12775;46.994;15.498;2022-07-18T01:24:13;3.92;;;3.62;;
1987;SDS011;12775;46.994;15.498;2022-07-18T01:26:40;3.92;;;3.64;;
1987;SDS011;12775;46.994;15.498;2022-07-18T01:29:07;4.00;;;3.70;;
1987;SDS011;12775;46.994;15.498;2022-07-18T01:31:34;4.48;;;4.08;;
1987;SDS011;12775;46.994;15.498;2022-07-18T01:34:00;3.74;;;3.44;;
1987;SDS011;12775;46.994;15.498;2022-07-18T01:36:27;3.92;;;3.62;;
1987;SDS011;12775;46.994;15.498;2022-07-18T01:38:53;6.78;;;3.80;;
1987;SDS011;12775;46.994;15.498;2022-07-18T01:41:20;4.20;;;3.80;;
1987;SDS011;12775;46.994;15.498;2022-07-18T01:43:46;4.00;;;3.60;;
1987;SDS011;12775;46.994;15.498;2022-07-18T01:46:13;5.80;;;3.36;;
1987;SDS011;12775;46.994;15.498;2022-07-18T01:48:40;4.18;;;3.80;;
1987;SDS011;12775;46.994;15.498;2022-07-18T01:51:06;6.10;;;3.46;;
1987;SDS011;12775;46.994;15.498;2022-07-18T01:53:35;3.64;;;3.34;;
1987;SDS011;12775;46.994;15.498;2022-07-18T01:56:01;4.06;;;3.76;;
1987;SDS011;12775;46.994;15.498;2022-07-18T01:58:28;4.12;;;3.82;;
1987;SDS011;12775;46.994;15.498;2022-07-18T02:00:54;4.08;;;3.74;;
1987;SDS011;12775;46.994;15.498;2022-07-18T02:03:22;3.92;;;3.62;;
1987;SDS011;12775;46.994;15.498;2022-07-18T02:05:48;3.50;;;3.28;;
1987;SDS011;12775;46.994;15.498;2022-07-18T02:08:15;3.46;;;3.12;;
1987;SDS011;12775;46.994;15.498;2022-07-18T02:10:42;4.58;;;4.00;;
1987;SDS011;12775;46.994;15.498;2022-07-18T02:13:08;4.12;;;3.82;;
1987;SDS011;12775;46.994;15.498;2022-07-18T02:15:35;5.92;;;3.38;;
1987;SDS011;12775;46.994;15.498;2022-07-18T02:18:02;3.32;;;3.12;;
1987;SDS011;12775;46.994;15.498;2022-07-18T02:20:28;3.96;;;3.00;;
1987;SDS011;12775;46.994;15.498;2022-07-18T02:22:55;3.40;;;3.20;;
1987;SDS011;12775;46.994;15.498;2022-07-18T02:25:23;3.18;;;2.98;;
1987;SDS011;12775;46.994;15.498;2022-07-18T02:27:49;3.82;;;3.52;;
1987;SDS011;12775;46.994;15.498;2022-07-18T02:30:16;3.98;;;3.64;;
1987;SDS011;12775;46.994;15.498;2022-07-18T02:32:42;5.06;;;3.10;;
1987;SDS011;12775;46.994;15.498;2022-07-18T02:35:09;4.56;;;4.16;;
1987;SDS011;12775;46.994;15.498;2022-07-18T02:37:36;3.12;;;2.92;;
1987;SDS011;12775;46.994;15.498;2022-07-18T02:40:02;3.76;;;3.46;;
1987;SDS011;12775;46.994;15.498;2022-07-18T02:42:29;3.86;;;3.56;;
1987;SDS011;12775;46.994;15.498;2022-07-18T02:44:56;3.72;;;3.22;;
1987;SDS011;12775;46.994;15.498;2022-07-18T02:47:22;3.66;;;2.92;;
1987;SDS011;12775;46.994;15.498;2022-07-18T02:49:49;4.12;;;3.60;;
1987;SDS011;12775;46.994;15.498;2022-07-18T02:52:16;3.88;;;3.58;;
1987;SDS011;12775;46.994;15.498;2022-07-18T02:54:42;4.60;;;4.28;;
1987;SDS011;12775;46.994;15.498;2022-07-18T02:57:09;4.84;;;4.44;;
1987;SDS011;12775;46.994;15.498;2022-07-18T02:59:36;4.18;;;3.88;;
1987;SDS011;12775;46.994;15.498;2022-07-18T03:02:02;3.92;;;3.64;;
1987;SDS011;12775;46.994;15.498;2022-07-18T03:04:29;4.02;;;3.72;;
1987;SDS011;12775;46.994;15.498;2022-07-18T03:06:55;4.04;;;3.74;;
1987;SDS011;12775;46.994;15.498;2022-07-18T03:09:23;4.36;;;4.04;;
1987;SDS011;12775;46.994;15.498;2022-07-18T03:11:49;3.58;;;3.28;;
1987;SDS011;12775;46.994;15.498;2022-07-18T03:14:16;6.40;;;3.26;;
1987;SDS011;12775;46.994;15.498;2022-07-18T03:16:43;3.60;;;3.22;;
1987;SDS011;12775;46.994;15.498;2022-07-18T03:19:09;4.92;;;3.82;;
1987;SDS011;12775;46.994;15.498;2022-07-18T03:21:36;3.68;;;3.38;;
1987;SDS011;12775;46.994;15.498;2022-07-18T03:24:03;3.68;;;3.42;;
1987;SDS011;12775;46.994;15.498;2022-07-18T03:26:29;3.32;;;3.04;;
1987;SDS011;12775;46.994;15.498;2022-07-18T03:28:56;2.90;;;2.70;;
1987;SDS011;12775;46.994;15.498;2022-07-18T03:31:22;3.42;;;3.10;;
1987;SDS011;12775;46.994;15.498;2022-07-18T03:33:49;3.66;;;3.42;;
1987;SDS011;12775;46.994;15.498;2022-07-18T03:36:16;3.72;;;3.42;;
1987;SDS011;12775;46.994;15.498;2022-07-18T03:38:43;4.08;;;3.76;;
1987;SDS011;12775;46.994;15.498;2022-07-18T03:41:10;4.28;;;3.98;;
1987;SDS011;12775;46.994;15.498;2022-07-18T03:43:36;3.70;;;3.50;;
1987;SDS011;12775;46.994;15.498;2022-07-18T03:46:02;3.70;;;3.40;;
1987;SDS011;12775;46.994;15.498;2022-07-18T03:48:29;4.36;;;4.06;;
1987;SDS011;12775;46.994;15.498;2022-07-18T03:50:55;3.32;;;3.00;;
1987;SDS011;12775;46.994;15.498;2022-07-18T03:53:22;3.90;;;3.60;;
1987;SDS011;12775;46.994;15.498;2022-07-18T03:55:48;3.84;;;3.56;;
1987;SDS011;12775;46.994;15.498;2022-07-18T03:58:15;4.22;;;3.82;;
1987;SDS011;12775;46.994;15.498;2022-07-18T04:00:42;5.16;;;4.42;;
1987;SDS011;12775;46.994;15.498;2022-07-18T04:03:08;6.68;;;3.80;;
1987;SDS011;12775;46.994;15.498;2022-07-18T04:05:36;3.70;;;3.32;;
1987;SDS011;12775;46.994;15.498;2022-07-18T04:08:03;3.42;;;3.12;;
1987;SDS011;12775;46.994;15.498;2022-07-18T04:10:29;3.76;;;3.46;;
1987;SDS011;12775;46.994;15.498;2022-07-18T04:12:56;4.48;;;3.36;;
1987;SDS011;12775;46.994;15.498;2022-07-18T04:15:24;3.68;;;3.38;;
1987;SDS011;12775;46.994;15.498;2022-07-18T04:17:49;3.28;;;3.08;;
1987;SDS011;12775;46.994;15.498;2022-07-18T04:20:16;4.14;;;3.84;;
1987;SDS011;12775;46.994;15.498;2022-07-18T04:22:46;4.10;;;3.70;;
1987;SDS011;12775;46.994;15.498;2022-07-18T04:25:14;5.44;;;4.36;;
1987;SDS011;12775;46.994;15.498;2022-07-18T04:27:40;4.06;;;3.84;;
1987;SDS011;12775;46.994;15.498;2022-07-18T04:32:32;6.98;;;4.50;;
1987;SDS011;12775;46.994;15.498;2022-07-18T04:35:00;4.46;;;4.16;;
1987;SDS011;12775;46.994;15.498;2022-07-18T04:37:29;4.22;;;3.80;;
1987;SDS011;12775;46.994;15.498;2022-07-18T04:39:54;4.52;;;4.12;;
1987;SDS011;12775;46.994;15.498;2022-07-18T04:42:22;4.36;;;4.06;;
1987;SDS011;12775;46.994;15.498;2022-07-18T04:44:49;5.38;;;4.12;;
1987;SDS011;12775;46.994;15.498;2022-07-18T04:47:16;5.46;;;4.72;;
1987;SDS011;12775;46.994;15.498;2022-07-18T04:49:44;5.14;;;4.74;;
1987;SDS011;12775;46.994;15.498;2022-07-18T04:52:11;5.66;;;4.04;;
1987;SDS011;12775;46.994;15.498;2022-07-18T04:54:39;5.12;;;4.72;;
1987;SDS011;12775;46.994;15.498;2022-07-18T04:57:06;5.38;;;4.34;;
1987;SDS011;12775;46.994;15.498;2022-07-18T04:59:33;6.12;;;4.98;;
1987;SDS011;12775;46.994;15.498;2022-07-18T05:02:01;4.92;;;4.52;;
1987;SDS011;12775;46.994;15.498;2022-07-18T05:04:28;5.48;;;5.04;;
1987;SDS011;12775;46.994;15.498;2022-07-18T05:06:55;5.28;;;4.30;;
1987;SDS011;12775;46.994;15.498;2022-07-18T05:09:23;5.32;;;4.92;;
1987;SDS011;12775;46.994;15.498;2022-07-18T05:11:50;7.64;;;4.66;;
1987;SDS011;12775;46.994;15.498;2022-07-18T05:14:17;5.04;;;4.54;;
1987;SDS011;12775;46.994;15.498;2022-07-18T05:16:45;5.28;;;4.78;;
1987;SDS011;12775;46.994;15.498;2022-07-18T05:19:13;5.44;;;5.04;;
1987;SDS011;12775;46.994;15.498;2022-07-18T05:21:42;5.38;;;4.98;;
1987;SDS011;12775;46.994;15.498;2022-07-18T05:24:09;5.28;;;4.58;;
1987;SDS011;12775;46.994;15.498;2022-07-18T05:26:36;6.00;;;5.50;;
1987;SDS011;12775;46.994;15.498;2022-07-18T05:29:04;6.58;;;5.60;;
1987;SDS011;12775;46.994;15.498;2022-07-18T05:31:31;14.20;;;6.10;;
1987;SDS011;12775;46.994;15.498;2022-07-18T05:33:58;6.10;;;5.10;;
1987;SDS011;12775;46.994;15.498;2022-07-18T05:36:26;6.56;;;5.08;;
1987;SDS011;12775;46.994;15.498;2022-07-18T05:38:52;6.18;;;5.58;;
1987;SDS011;12775;46.994;15.498;2022-07-18T05:41:21;5.30;;;4.90;;
1987;SDS011;12775;46.994;15.498;2022-07-18T05:43:48;6.74;;;4.70;;
1987;SDS011;12775;46.994;15.498;2022-07-18T05:46:16;5.80;;;4.92;;
1987;SDS011;12775;46.994;15.498;2022-07-18T05:48:43;4.96;;;4.54;;
1987;SDS011;12775;46.994;15.498;2022-07-18T05:51:10;5.18;;;4.52;;
1987;SDS011;12775;46.994;15.498;2022-07-18T05:53:38;5.82;;;5.02;;
1987;SDS011;12775;46.994;15.498;2022-07-18T05:56:05;5.10;;;4.72;;
1987;SDS011;12775;46.994;15.498;2022-07-18T05:58:32;5.80;;;5.30;;
1987;SDS011;12775;46.994;15.498;2022-07-18T06:00:59;5.06;;;4.56;;
1987;SDS011;12775;46.994;15.498;2022-07-18T06:03:25;4.84;;;4.48;;
1987;SDS011;12775;46.994;15.498;2022-07-18T06:05:52;8.72;;;5.42;;
1987;SDS011;12775;46.994;15.498;2022-07-18T06:08:19;4.60;;;4.30;;
1987;SDS011;12775;46.994;15.498;2022-07-18T06:10:45;5.54;;;5.04;;
1987;SDS011;12775;46.994;15.498;2022-07-18T06:13:12;4.90;;;4.54;;
1987;SDS011;12775;46.994;15.498;2022-07-18T06:15:39;5.58;;;4.96;;
1987;SDS011;12775;46.994;15.498;2022-07-18T06:18:05;5.18;;;4.52;;
1987;SDS011;12775;46.994;15.498;2022-07-18T06:20:32;4.76;;;4.28;;
1987;SDS011;12775;46.994;15.498;2022-07-18T06:22:58;4.98;;;4.50;;
1987;SDS011;12775;46.994;15.498;2022-07-18T06:25:25;6.04;;;4.46;;
1987;SDS011;12775;46.994;15.498;2022-07-18T06:27:51;5.86;;;5.36;;
1987;SDS011;12775;46.994;15.498;2022-07-18T06:30:18;4.82;;;4.52;;
1987;SDS011;12775;46.994;15.498;2022-07-18T06:32:45;5.02;;;4.66;;
1987;SDS011;12775;46.994;15.498;2022-07-18T06:35:11;4.86;;;4.04;;
1987;SDS011;12775;46.994;15.498;2022-07-18T06:37:38;8.50;;;4.76;;
1987;SDS011;12775;46.994;15.498;2022-07-18T06:40:05;4.62;;;4.20;;
1987;SDS011;12775;46.994;15.498;2022-07-18T06:42:32;5.42;;;4.68;;
1987;SDS011;12775;46.994;15.498;2022-07-18T06:44:59;4.04;;;3.70;;
1987;SDS011;12775;46.994;15.498;2022-07-18T06:47:26;3.56;;;3.32;;
1987;SDS011;12775;46.994;15.498;2022-07-18T06:49:52;3.52;;;3.22;;
1987;SDS011;12775;46.994;15.498;2022-07-18T06:52:19;3.84;;;3.54;;
1987;SDS011;12775;46.994;15.498;2022-07-18T06:54:46;3.72;;;3.42;;
1987;SDS011;12775;46.994;15.498;2022-07-18T06:57:12;3.36;;;3.16;;
1987;SDS011;12775;46.994;15.498;2022-07-18T06:59:39;4.32;;;3.16;;
1987;SDS011;12775;46.994;15.498;2022-07-18T07:02:06;3.76;;;3.46;;
1987;SDS011;12775;46.994;15.498;2022-07-18T07:04:32;3.32;;;2.90;;
1987;SDS011;12775;46.994;15.498;2022-07-18T07:06:59;3.22;;;2.76;;
1987;SDS011;12775;46.994;15.498;2022-07-18T07:09:25;4.04;;;3.20;;
1987;SDS011;12775;46.994;15.498;2022-07-18T07:11:52;3.82;;;3.52;;
1987;SDS011;12775;46.994;15.498;2022-07-18T07:14:19;8.96;;;3.70;;
1987;SDS011;12775;46.994;15.498;2022-07-18T07:16:46;3.06;;;2.78;;
1987;SDS011;12775;46.994;15.498;2022-07-18T07:19:13;4.80;;;2.80;;
1987;SDS011;12775;46.994;15.498;2022-07-18T07:21:40;3.10;;;2.64;;
1987;SDS011;12775;46.994;15.498;2022-07-18T07:24:07;3.20;;;2.92;;
1987;SDS011;12775;46.994;15.498;2022-07-18T07:26:34;2.82;;;2.62;;
1987;SDS011;12775;46.994;15.498;2022-07-18T07:29:01;2.42;;;2.22;;
1987;SDS011;12775;46.994;15.498;2022-07-18T07:31:27;3.04;;;2.58;;
1987;SDS011;12775;46.994;15.498;2022-07-18T07:33:54;2.44;;;2.30;;
1987;SDS011;12775;46.994;15.498;2022-07-18T07:36:21;3.28;;;2.40;;
1987;SDS011;12775;46.994;15.498;2022-07-18T07:38:47;3.32;;;2.98;;
1987;SDS011;12775;46.994;15.498;2022-07-18T07:41:14;2.64;;;2.50;;
1987;SDS011;12775;46.994;15.498;2022-07-18T07:43:40;3.10;;;2.90;;
1987;SDS011;12775;46.994;15.498;2022-07-18T07:46:07;3.06;;;2.86;;
1987;SDS011;12775;46.994;15.498;2022-07-18T07:48:34;4.98;;;2.82;;
1987;SDS011;12775;46.994;15.498;2022-07-18T07:51:00;3.06;;;2.70;;
1987;SDS011;12775;46.994;15.498;2022-07-18T07:53:27;3.94;;;3.52;;
1987;SDS011;12775;46.994;15.498;2022-07-18T07:55:53;3.32;;;3.02;;
1987;SDS011;12775;46.994;15.498;2022-07-18T07:58:20;3.26;;;3.02;;
1987;SDS011;12775;46.994;15.498;2022-07-18T08:00:47;4.52;;;3.64;;
1987;SDS011;12775;46.994;15.498;2022-07-18T08:03:14;3.40;;;3.06;;
1987;SDS011;12775;46.994;15.498;2022-07-18T08:05:44;5.34;;;3.18;;
1987;SDS011;12775;46.994;15.498;2022-07-18T08:08:11;3.00;;;2.80;;
1987;SDS011;12775;46.994;15.498;2022-07-18T08:10:38;2.92;;;2.60;;
1987;SDS011;12775;46.994;15.498;2022-07-18T08:13:05;3.98;;;3.62;;
1987;SDS011;12775;46.994;15.498;2022-07-18T08:15:31;3.74;;;3.38;;
1987;SDS011;12775;46.994;15.498;2022-07-18T08:17:58;4.86;;;2.74;;
1987;SDS011;12775;46.994;15.498;2022-07-18T08:20:25;3.80;;;2.66;;
1987;SDS011;12775;46.994;15.498;2022-07-18T08:22:57;5.42;;;3.14;;
1987;SDS011;12775;46.994;15.498;2022-07-18T08:25:24;2.64;;;2.32;;
1987;SDS011;12775;46.994;15.498;2022-07-18T08:27:51;2.86;;;2.44;;
1987;SDS011;12775;46.994;15.498;2022-07-18T08:30:17;2.84;;;2.64;;
1987;SDS011;12775;46.994;15.498;2022-07-18T08:32:44;2.80;;;2.58;;
1987;SDS011;12775;46.994;15.498;2022-07-18T08:35:11;3.00;;;2.70;;
1987;SDS011;12775;46.994;15.498;2022-07-18T08:37:37;2.14;;;1.94;;
1987;SDS011;12775;46.994;15.498;2022-07-18T08:40:04;2.86;;;2.66;;
1987;SDS011;12775;46.994;15.498;2022-07-18T08:42:32;4.34;;;2.30;;
1987;SDS011;12775;46.994;15.498;2022-07-18T08:44:58;2.52;;;2.28;;
1987;SDS011;12775;46.994;15.498;2022-07-18T08:47:25;2.56;;;2.36;;
1987;SDS011;12775;46.994;15.498;2022-07-18T08:49:51;2.68;;;2.48;;
1987;SDS011;12775;46.994;15.498;2022-07-18T08:52:18;2.14;;;1.82;;
1987;SDS011;12775;46.994;15.498;2022-07-18T08:54:45;2.50;;;2.30;;
1987;SDS011;12775;46.994;15.498;2022-07-18T08:57:11;4.02;;;2.54;;
1987;SDS011;12775;46.994;15.498;2022-07-18T08:59:38;2.42;;;2.22;;
1987;SDS011;12775;46.994;15.498;2022-07-18T09:02:05;2.10;;;1.90;;
1987;SDS011;12775;46.994;15.498;2022-07-18T09:04:32;2.48;;;2.28;;
1987;SDS011;12775;46.994;15.498;2022-07-18T09:07:02;2.74;;;2.42;;
1987;SDS011;12775;46.994;15.498;2022-07-18T09:09:29;3.16;;;2.36;;
1987;SDS011;12775;46.994;15.498;2022-07-18T09:11:57;3.34;;;3.04;;
1987;SDS011;12775;46.994;15.498;2022-07-18T09:14:42;3.06;;;2.76;;
1987;SDS011;12775;46.994;15.498;2022-07-18T09:17:09;2.58;;;2.38;;
1987;SDS011;12775;46.994;15.498;2022-07-18T09:19:36;2.60;;;2.40;;
1987;SDS011;12775;46.994;15.498;2022-07-18T09:32:30;2.28;;;2.08;;
1987;SDS011;12775;46.994;15.498;2022-07-18T09:34:57;2.82;;;2.62;;
1987;SDS011;12775;46.994;15.498;2022-07-18T09:37:24;2.22;;;2.02;;
1987;SDS011;12775;46.994;15.498;2022-07-18T09:39:53;1.98;;;1.78;;
1987;SDS011;12775;46.994;15.498;2022-07-18T09:42:17;2.40;;;1.92;;
1987;SDS011;12775;46.994;15.498;2022-07-18T09:47:22;2.56;;;2.36;;
1987;SDS011;12775;46.994;15.498;2022-07-18T09:49:49;2.60;;;2.40;;
1987;SDS011;12775;46.994;15.498;2022-07-18T09:52:15;3.48;;;2.00;;
1987;SDS011;12775;46.994;15.498;2022-07-18T09:54:43;2.26;;;2.06;;
1987;SDS011;12775;46.994;15.498;2022-07-18T09:57:09;2.44;;;2.24;;
1987;SDS011;12775;46.994;15.498;2022-07-18T09:59:36;2.38;;;2.16;;
1987;SDS011;12775;46.994;15.498;2022-07-18T10:02:03;3.34;;;1.74;;
1987;SDS011;12775;46.994;15.498;2022-07-18T10:04:28;2.56;;;1.76;;
1987;SDS011;12775;46.994;15.498;2022-07-18T10:06:55;3.60;;;2.08;;
1987;SDS011;12775;46.994;15.498;2022-07-18T10:09:21;2.60;;;2.36;;
1987;SDS011;12775;46.994;15.498;2022-07-18T10:11:48;4.34;;;1.98;;
1987;SDS011;12775;46.994;15.498;2022-07-18T10:14:15;2.06;;;1.86;;
1987;SDS011;12775;46.994;15.498;2022-07-18T10:16:41;3.14;;;2.28;;
1987;SDS011;12775;46.994;15.498;2022-07-18T10:19:08;2.08;;;1.86;;
1987;SDS011;12775;46.994;15.498;2022-07-18T10:21:35;3.34;;;2.50;;
1987;SDS011;12775;46.994;15.498;2022-07-18T10:24:01;2.18;;;2.08;;
1987;SDS011;12775;46.994;15.498;2022-07-18T10:26:28;3.30;;;3.00;;
1987;SDS011;12775;46.994;15.498;2022-07-18T10:29:10;3.56;;;2.40;;
1987;SDS011;12775;46.994;15.498;2022-07-18T10:31:37;2.10;;;2.00;;
1987;SDS011;12775;46.994;15.498;2022-07-18T10:34:11;3.34;;;2.28;;
1987;SDS011;12775;46.994;15.498;2022-07-18T10:36:39;2.12;;;1.86;;
1987;SDS011;12775;46.994;15.498;2022-07-18T10:39:20;2.04;;;1.84;;
1987;SDS011;12775;46.994;15.498;2022-07-18T10:42:19;2.70;;;2.50;;
1987;SDS011;12775;46.994;15.498;2022-07-18T10:44:42;2.42;;;2.30;;
1987;SDS011;12775;46.994;15.498;2022-07-18T10:47:11;2.50;;;2.30;;
1987;SDS011;12775;46.994;15.498;2022-07-18T10:52:58;2.66;;;2.46;;
1987;SDS011;12775;46.994;15.498;2022-07-18T10:55:26;3.04;;;2.10;;
1987;SDS011;12775;46.994;15.498;2022-07-18T11:00:42;2.54;;;2.34;;
1987;SDS011;12775;46.994;15.498;2022-07-18T11:03:10;2.66;;;2.46;;
1987;SDS011;12775;46.994;15.498;2022-07-18T11:05:43;2.86;;;2.66;;
1987;SDS011;12775;46.994;15.498;2022-07-18T11:08:18;2.32;;;2.10;;
1987;SDS011;12775;46.994;15.498;2022-07-18T11:13:31;1.60;;;1.50;;
1987;SDS011;12775;46.994;15.498;2022-07-18T11:16:00;1.60;;;1.50;;
1987;SDS011;12775;46.994;15.498;2022-07-18T11:18:31;4.20;;;2.60;;
1987;SDS011;12775;46.994;15.498;2022-07-18T11:20:58;2.76;;;1.90;;
1987;SDS011;12775;46.994;15.498;2022-07-18T11:23:25;2.54;;;2.16;;
1987;SDS011;12775;46.994;15.498;2022-07-18T11:25:54;2.66;;;2.46;;
1987;SDS011;12775;46.994;15.498;2022-07-18T11:28:20;2.66;;;2.46;;
1987;SDS011;12775;46.994;15.498;2022-07-18T11:30:58;2.60;;;2.46;;
1987;SDS011;12775;46.994;15.498;2022-07-18T11:33:28;2.60;;;2.40;;
1987;SDS011;12775;46.994;15.498;2022-07-18T11:36:04;2.14;;;2.04;;
1987;SDS011;12775;46.994;15.498;2022-07-18T11:38:35;3.82;;;2.36;;
1987;SDS011;12775;46.994;15.498;2022-07-18T11:41:02;2.38;;;2.22;;
1987;SDS011;12775;46.994;15.498;2022-07-18T11:43:28;1.90;;;1.80;;
1987;SDS011;12775;46.994;15.498;2022-07-18T11:45:59;3.18;;;2.48;;
1987;SDS011;12775;46.994;15.498;2022-07-18T11:48:33;2.72;;;2.52;;
1987;SDS011;12775;46.994;15.498;2022-07-18T11:51:00;2.22;;;2.12;;
1987;SDS011;12775;46.994;15.498;2022-07-18T11:53:26;1.64;;;1.54;;
1987;SDS011;12775;46.994;15.498;2022-07-18T11:55:53;2.90;;;2.30;;
1987;SDS011;12775;46.994;15.498;2022-07-18T11:58:19;2.48;;;2.06;;
1987;SDS011;12775;46.994;15.498;2022-07-18T12:00:46;1.98;;;1.86;;
1987;SDS011;12775;46.994;15.498;2022-07-18T12:03:15;2.20;;;2.00;;
1987;SDS011;12775;46.994;15.498;2022-07-18T12:05:42;2.84;;;2.18;;
1987;SDS011;12775;46.994;15.498;2022-07-18T12:11:02;2.34;;;2.10;;
1987;SDS011;12775;46.994;15.498;2022-07-18T12:13:47;1.90;;;1.70;;
1987;SDS011;12775;46.994;15.498;2022-07-18T12:18:50;3.20;;;2.30;;
1987;SDS011;12775;46.994;15.498;2022-07-18T12:21:16;2.50;;;2.30;;
1987;SDS011;12775;46.994;15.498;2022-07-18T12:23:43;2.38;;;2.18;;
1987;SDS011;12775;46.994;15.498;2022-07-18T12:26:09;2.38;;;2.18;;
1987;SDS011;12775;46.994;15.498;2022-07-18T12:28:36;2.26;;;2.06;;
1987;SDS011;12775;46.994;15.498;2022-07-18T12:31:02;2.10;;;1.90;;
1987;SDS011;12775;46.994;15.498;2022-07-18T12:33:29;2.02;;;1.92;;
1987;SDS011;12775;46.994;15.498;2022-07-18T12:35:56;2.00;;;1.90;;
1987;SDS011;12775;46.994;15.498;2022-07-18T12:38:23;1.72;;;1.62;;
1987;SDS011;12775;46.994;15.498;2022-07-18T12:40:51;3.88;;;2.72;;
1987;SDS011;12775;46.994;15.498;2022-07-18T12:43:25;1.70;;;1.60;;
1987;SDS011;12775;46.994;15.498;2022-07-18T12:45:53;2.70;;;2.50;;
1987;SDS011;12775;46.994;15.498;2022-07-18T12:48:19;2.62;;;2.38;;
1987;SDS011;12775;46.994;15.498;2022-07-18T12:50:45;1.56;;;1.46;;
1987;SDS011;12775;46.994;15.498;2022-07-18T12:53:12;1.68;;;1.58;;
1987;SDS011;12775;46.994;15.498;2022-07-18T12:55:39;2.04;;;1.84;;
1987;SDS011;12775;46.994;15.498;2022-07-18T12:58:05;2.02;;;1.56;;
1987;SDS011;12775;46.994;15.498;2022-07-18T13:00:32;2.28;;;2.08;;
1987;SDS011;12775;46.994;15.498;2022-07-18T13:02:59;2.16;;;1.92;;
1987;SDS011;12775;46.994;15.498;2022-07-18T13:05:26;1.84;;;1.68;;
1987;SDS011;12775;46.994;15.498;2022-07-18T13:07:52;1.88;;;1.72;;
1987;SDS011;12775;46.994;15.498;2022-07-18T13:10:18;1.90;;;1.70;;
1987;SDS011;12775;46.994;15.498;2022-07-18T13:12:45;1.98;;;1.88;;
1987;SDS011;12775;46.994;15.498;2022-07-18T13:15:12;6.26;;;2.38;;
1987;SDS011;12775;46.994;15.498;2022-07-18T13:17:38;2.38;;;2.12;;
1987;SDS011;12775;46.994;15.498;2022-07-18T13:20:05;1.66;;;1.48;;
1987;SDS011;12775;46.994;15.498;2022-07-18T13:22:32;3.44;;;1.96;;
1987;SDS011;12775;46.994;15.498;2022-07-18T13:24:59;2.02;;;1.90;;
1987;SDS011;12775;46.994;15.498;2022-07-18T13:27:26;2.44;;;2.20;;
1987;SDS011;12775;46.994;15.498;2022-07-18T13:29:52;1.78;;;1.68;;
1987;SDS011;12775;46.994;15.498;2022-07-18T13:32:19;1.78;;;1.68;;
1987;SDS011;12775;46.994;15.498;2022-07-18T13:34:45;2.22;;;2.04;;
1987;SDS011;12775;46.994;15.498;2022-07-18T13:37:12;2.34;;;2.14;;
1987;SDS011;12775;46.994;15.498;2022-07-18T13:39:38;3.02;;;2.20;;
1987;SDS011;12775;46.994;15.498;2022-07-18T13:42:05;3.08;;;2.88;;
1987;SDS011;12775;46.994;15.498;2022-07-18T13:44:32;1.90;;;1.80;;
1987;SDS011;12775;46.994;15.498;2022-07-18T13:46:58;2.58;;;1.78;;
1987;SDS011;12775;46.994;15.498;2022-07-18T13:49:25;1.90;;;1.74;;
1987;SDS011;12775;46.994;15.498;2022-07-18T13:51:51;1.84;;;1.74;;
1987;SDS011;12775;46.994;15.498;2022-07-18T13:54:18;1.92;;;1.82;;
1987;SDS011;12775;46.994;15.498;2022-07-18T13:56:45;2.42;;;1.84;;
1987;SDS011;12775;46.994;15.498;2022-07-18T13:59:11;1.90;;;1.80;;
1987;SDS011;12775;46.994;15.498;2022-07-18T14:01:38;1.74;;;1.64;;
1987;SDS011;12775;46.994;15.498;2022-07-18T14:04:06;2.16;;;2.06;;
1987;SDS011;12775;46.994;15.498;2022-07-18T14:06:32;1.86;;;1.64;;
1987;SDS011;12775;46.994;15.498;2022-07-18T14:08:59;2.04;;;1.94;;
1987;SDS011;12775;46.994;15.498;2022-07-18T14:11:25;2.68;;;1.94;;
1987;SDS011;12775;46.994;15.498;2022-07-18T14:13:52;2.14;;;2.04;;
1987;SDS011;12775;46.994;15.498;2022-07-18T14:16:19;2.60;;;2.30;;
1987;SDS011;12775;46.994;15.498;2022-07-18T14:18:46;1.74;;;1.62;;
1987;SDS011;12775;46.994;15.498;2022-07-18T14:21:12;1.70;;;1.60;;
1987;SDS011;12775;46.994;15.498;2022-07-18T14:23:39;2.42;;;2.00;;
1987;SDS011;12775;46.994;15.498;2022-07-18T14:26:06;1.78;;;1.68;;
1987;SDS011;12775;46.994;15.498;2022-07-18T14:28:33;2.68;;;2.48;;
1987;SDS011;12775;46.994;15.498;2022-07-18T14:30:59;2.12;;;2.02;;
1987;SDS011;12775;46.994;15.498;2022-07-18T14:33:26;1.62;;;1.50;;
1987;SDS011;12775;46.994;15.498;2022-07-18T14:35:52;2.16;;;1.78;;
1987;SDS011;12775;46.994;15.498;2022-07-18T14:38:19;2.84;;;2.46;;
1987;SDS011;12775;46.994;15.498;2022-07-18T14:40:46;2.20;;;2.00;;
1987;SDS011;12775;46.994;15.498;2022-07-18T14:43:13;2.24;;;1.80;;
1987;SDS011;12775;46.994;15.498;2022-07-18T14:45:39;2.22;;;2.02;;
1987;SDS011;12775;46.994;15.498;2022-07-18T14:48:06;2.14;;;2.04;;
1987;SDS011;12775;46.994;15.498;2022-07-18T14:50:33;3.72;;;1.90;;
1987;SDS011;12775;46.994;15.498;2022-07-18T14:52:59;1.82;;;1.72;;
1987;SDS011;12775;46.994;15.498;2022-07-18T14:55:27;1.74;;;1.64;;
1987;SDS011;12775;46.994;15.498;2022-07-18T14:57:54;2.44;;;1.96;;
1987;SDS011;12775;46.994;15.498;2022-07-18T15:00:21;1.98;;;1.84;;
1987;SDS011;12775;46.994;15.498;2022-07-18T15:02:49;2.12;;;1.72;;
1987;SDS011;12775;46.994;15.498;2022-07-18T15:05:16;1.72;;;1.62;;
1987;SDS011;12775;46.994;15.498;2022-07-18T15:07:43;2.44;;;2.28;;
1987;SDS011;12775;46.994;15.498;2022-07-18T15:10:11;2.14;;;1.46;;
1987;SDS011;12775;46.994;15.498;2022-07-18T15:12:39;3.10;;;2.44;;
1987;SDS011;12775;46.994;15.498;2022-07-18T15:15:07;2.18;;;1.98;;
1987;SDS011;12775;46.994;15.498;2022-07-18T15:17:34;1.88;;;1.78;;